Time;durP1;ratioP1;P1;durP2;ratioP2;P2;SDS_P1;SDS_P2;PMS_P1;PMS_P2;Temp;Humidity;BMP_temperature;BMP_pressure;BME280_temperature;BME280_humidity;BME280_pressure;Samples;Min_cycle;Max_cycle;Signal;HPM_P1;HPM_P2
2021/09/07 00:01:42;;;;;;;26.05;19.45;;;;;;;18.87;53.01;96095.72;5008065;28;20024;-72
2021/09/07 00:04:07;;;;;;;19.70;17.33;;;;;;;18.99;53.06;96113.84;5010521;28;20073;-71
2021/09/07 00:06:32;;;;;;;18.38;16.58;;;;;;;18.98;53.08;96106.09;5008759;28;20125;-71
2021/09/07 00:08:58;;;;;;;22.48;18.45;;;;;;;18.94;52.76;96104.06;5008380;28;20070;-71
2021/09/07 00:11:23;;;;;;;24.15;19.65;;;;;;;18.86;52.97;96096.84;5008692;28;20082;-72
2021/09/07 00:13:48;;;;;;;25.85;20.25;;;;;;;18.84;52.93;96084.84;5008923;28;20038;-71
2021/09/07 00:16:14;;;;;;;20.40;18.27;;;;;;;18.83;52.84;96094.03;5010141;28;20133;-71
2021/09/07 00:18:39;;;;;;;19.08;17.10;;;;;;;18.79;52.81;96096.63;5007952;28;20042;-71
2021/09/07 00:21:05;;;;;;;23.08;18.02;;;;;;;18.66;53.16;96082.28;5008236;28;20056;-72
2021/09/07 00:23:30;;;;;;;20.45;18.35;;;;;;;18.69;52.88;96089.75;5008723;28;20046;-71
2021/09/07 00:25:55;;;;;;;20.15;18.05;;;;;;;18.76;53.13;96101.88;5008673;28;20022;-71
2021/09/07 00:28:21;;;;;;;18.25;16.35;;;;;;;18.72;52.91;96093.66;4992991;28;20026;-71
2021/09/07 00:30:46;;;;;;;17.55;15.73;;;;;;;18.64;52.96;96092.63;4990515;28;20026;-71
2021/09/07 00:33:11;;;;;;;22.00;17.52;;;;;;;18.66;52.83;96092.28;5008088;28;20030;-71
2021/09/07 00:35:37;;;;;;;17.70;15.80;;;;;;;18.63;52.89;96090.22;5008766;28;20060;-71
2021/09/07 00:38:03;;;;;;;24.90;16.88;;;;;;;18.57;52.80;96086.97;5008616;28;20034;-71
2021/09/07 00:40:28;;;;;;;17.88;15.75;;;;;;;18.51;52.83;96077.50;5010137;28;20030;-71
2021/09/07 00:42:54;;;;;;;19.40;16.98;;;;;;;18.47;52.94;96076.59;5008714;28;20037;-71
2021/09/07 00:45:19;;;;;;;19.23;17.25;;;;;;;18.48;52.75;96080.06;5008754;28;20042;-71
2021/09/07 00:47:45;;;;;;;22.45;17.58;;;;;;;18.43;52.88;96073.78;5007969;28;20475;-71
2021/09/07 00:50:12;;;;;;;20.13;16.17;;;;;;;18.43;52.63;96075.69;5008015;28;20395;-71
2021/09/07 00:52:38;;;;;;;16.02;14.63;;;;;;;18.47;52.67;96079.28;5009400;28;20060;-71
2021/09/07 00:55:05;;;;;;;16.90;15.20;;;;;;;18.44;52.78;96080.75;5013790;28;20030;-71
2021/09/07 00:57:32;;;;;;;18.75;16.75;;;;;;;18.32;52.84;96072.59;5011788;28;20080;-71
2021/09/07 00:59:57;;;;;;;21.58;17.45;;;;;;;18.29;52.84;96080.56;5011172;28;20067;-71
2021/09/07 01:02:23;;;;;;;17.83;15.93;;;;;;;18.29;52.76;96080.56;5011054;28;20507;-72
2021/09/07 01:04:49;;;;;;;20.50;17.77;;;;;;;18.31;52.96;96089.09;5011486;28;20116;-71
2021/09/07 01:07:14;;;;;;;18.60;16.63;;;;;;;18.23;52.97;96079.22;5013648;28;20032;-71
2021/09/07 01:09:40;;;;;;;20.13;18.00;;;;;;;18.25;52.86;96075.06;5010937;28;20048;-71
2021/09/07 01:12:09;;;;;;;18.77;16.85;;;;;;;18.24;52.94;96086.94;5011561;28;20061;-71
2021/09/07 01:14:37;;;;;;;18.88;16.98;;;;;;;18.07;52.93;96060.19;5011807;28;20077;-71
2021/09/07 01:17:10;;;;;;;19.77;16.95;;;;;;;18.17;52.92;96076.72;5011164;28;20423;-71
2021/09/07 01:19:35;;;;;;;18.10;16.20;;;;;;;18.22;52.88;96081.13;5005519;28;20026;-71
2021/09/07 01:22:01;;;;;;;18.42;16.58;;;;;;;18.18;52.96;96075.59;5011516;28;20522;-71
2021/09/07 01:24:27;;;;;;;19.70;17.40;;;;;;;18.16;52.96;96060.88;5011446;28;20487;-71
2021/09/07 01:26:54;;;;;;;22.08;18.90;;;;;;;18.20;52.67;96053.72;5011344;28;20034;-71
2021/09/07 01:29:19;;;;;;;20.50;18.13;;;;;;;18.22;52.70;96064.16;5010794;28;20038;-71
2021/09/07 01:31:45;;;;;;;20.02;17.52;;;;;;;18.18;52.65;96061.34;5010714;28;20060;-71
2021/09/07 01:34:22;;;;;;;17.85;15.20;;;;;;;18.22;52.97;96059.56;5012687;28;20479;-72
2021/09/07 01:36:47;;;;;;;19.48;17.50;;;;;;;18.12;52.89;96041.91;5011129;28;20061;-71
2021/09/07 01:39:13;;;;;;;21.63;18.52;;;;;;;18.19;52.80;96052.94;5010383;28;20042;-71
2021/09/07 01:41:39;;;;;;;20.88;18.65;;;;;;;18.20;52.69;96048.31;5011165;28;20072;-71
2021/09/07 01:44:04;;;;;;;17.90;16.10;;;;;;;18.15;52.79;96043.13;5011015;28;20065;-71
2021/09/07 01:46:29;;;;;;;20.83;17.05;;;;;;;18.14;52.85;96046.97;5012416;28;20022;-71
2021/09/07 01:48:54;;;;;;;23.90;17.15;;;;;;;18.15;52.87;96049.31;5010122;28;20092;-71
2021/09/07 01:51:20;;;;;;;19.10;17.13;;;;;;;18.12;52.83;96050.00;5010529;28;20127;-71
2021/09/07 01:53:45;;;;;;;18.13;16.20;;;;;;;18.07;52.82;96033.25;5010705;28;20046;-72
2021/09/07 01:56:10;;;;;;;17.52;15.73;;;;;;;18.09;52.89;96039.88;5010578;28;20038;-71
2021/09/07 01:58:36;;;;;;;18.38;16.67;;;;;;;18.14;52.72;96053.13;5012343;28;20534;-71
2021/09/07 02:01:01;;;;;;;18.50;16.67;;;;;;;18.05;52.85;96043.53;5010631;28;20053;-71
2021/09/07 02:03:27;;;;;;;18.80;17.10;;;;;;;17.99;52.86;96045.66;5009798;28;20537;-71
2021/09/07 02:05:52;;;;;;;20.17;18.08;;;;;;;17.96;52.77;96040.91;4992374;28;20042;-71
2021/09/07 02:08:17;;;;;;;17.05;15.52;;;;;;;18.06;53.00;96059.34;5010275;28;20125;-71
2021/09/07 02:10:43;;;;;;;18.73;17.08;;;;;;;18.01;52.83;96061.47;5009816;28;20030;-71
2021/09/07 02:13:08;;;;;;;17.45;15.70;;;;;;;18.02;52.94;96066.53;4994742;28;20022;-71
2021/09/07 02:15:33;;;;;;;19.45;16.85;;;;;;;18.04;52.97;96068.91;5010301;28;20054;-70
2021/09/07 02:17:59;;;;;;;21.30;19.08;;;;;;;17.79;52.87;96027.59;5009786;28;20072;-71
2021/09/07 02:20:24;;;;;;;21.02;16.10;;;;;;;17.94;52.91;96056.63;5009497;28;20068;-71
2021/09/07 02:22:49;;;;;;;18.00;16.10;;;;;;;17.93;53.16;96061.22;5010318;28;20057;-71
2021/09/07 02:25:15;;;;;;;20.40;18.40;;;;;;;17.82;53.19;96041.19;5012128;28;20022;-71
2021/09/07 02:27:40;;;;;;;19.08;16.58;;;;;;;17.92;53.22;96062.34;5010234;28;20092;-70
2021/09/07 02:30:07;;;;;;;22.77;17.55;;;;;;;17.83;53.17;96048.16;5009475;28;20034;-71
2021/09/07 02:32:33;;;;;;;20.52;18.33;;;;;;;17.88;53.14;96057.94;4992090;28;20084;-71
2021/09/07 02:34:58;;;;;;;19.27;17.27;;;;;;;17.78;53.43;96051.03;5010041;28;20041;-71
2021/09/07 02:37:24;;;;;;;20.17;18.05;;;;;;;17.89;53.47;96068.38;4994659;28;20472;-71
2021/09/07 02:39:50;;;;;;;18.95;17.08;;;;;;;17.71;53.16;96031.91;5009560;28;20077;-71
2021/09/07 02:42:15;;;;;;;21.10;18.75;;;;;;;17.85;53.19;96059.34;5010092;28;20127;-71
2021/09/07 02:44:41;;;;;;;20.33;18.20;;;;;;;17.83;53.36;96058.13;5010042;28;20510;-71
2021/09/07 02:47:06;;;;;;;21.75;18.58;;;;;;;17.60;53.26;96025.31;5009477;28;20418;-72
2021/09/07 02:49:32;;;;;;;19.95;16.92;;;;;;;17.74;53.30;96052.00;5010799;28;20026;-71
2021/09/07 02:51:57;;;;;;;18.77;16.83;;;;;;;17.73;53.08;96045.84;4991221;28;20426;-72
2021/09/07 02:54:24;;;;;;;19.45;16.73;;;;;;;17.70;53.23;96037.59;4992114;28;20044;-71
2021/09/07 02:56:50;;;;;;;21.00;16.45;;;;;;;17.65;53.13;96033.97;4992407;28;20061;-72
2021/09/07 02:59:15;;;;;;;24.70;18.70;;;;;;;17.68;53.17;96040.63;5009215;28;20430;-71
2021/09/07 03:01:40;;;;;;;22.38;19.05;;;;;;;17.72;53.08;96046.16;5009330;28;20133;-72
2021/09/07 03:04:06;;;;;;;18.10;16.40;;;;;;;17.79;52.85;96057.97;5011472;28;20014;-71
2021/09/07 03:06:31;;;;;;;19.85;17.83;;;;;;;17.78;52.89;96044.88;4991964;28;20034;-71
2021/09/07 03:08:56;;;;;;;22.98;17.88;;;;;;;17.71;52.68;96028.41;5009099;28;20041;-72
2021/09/07 03:11:22;;;;;;;16.73;15.02;;;;;;;17.80;52.73;96046.09;5009535;28;20077;-71
2021/09/07 03:13:47;;;;;;;19.58;17.50;;;;;;;17.80;52.41;96039.94;5009507;28;20113;-71
2021/09/07 03:16:13;;;;;;;15.88;14.20;;;;;;;17.89;52.84;96054.91;4992774;28;20538;-71
2021/09/07 03:18:38;;;;;;;18.90;17.08;;;;;;;17.87;52.74;96048.28;4990556;28;20113;-71
2021/09/07 03:21:03;;;;;;;20.13;17.35;;;;;;;17.83;52.41;96050.06;4991424;28;20546;-71
2021/09/07 03:23:29;;;;;;;18.23;15.70;;;;;;;17.75;52.43;96040.13;5009239;28;20049;-71
2021/09/07 03:25:54;;;;;;;21.52;15.90;;;;;;;17.74;52.59;96046.63;5009464;28;20037;-72
2021/09/07 03:28:19;;;;;;;20.73;18.38;;;;;;;17.68;52.63;96029.88;4993793;28;20026;-72
2021/09/07 03:30:45;;;;;;;17.40;15.70;;;;;;;17.60;52.75;96034.19;5008796;28;20052;-71
2021/09/07 03:33:10;;;;;;;20.58;18.33;;;;;;;17.61;52.91;96049.22;5009335;28;20491;-71
2021/09/07 03:35:35;;;;;;;20.73;18.25;;;;;;;17.51;53.00;96030.00;5009166;28;20064;-71
2021/09/07 03:38:01;;;;;;;18.02;15.93;;;;;;;17.49;53.32;96038.38;4991175;28;20038;-72
2021/09/07 03:40:27;;;;;;;23.70;17.98;;;;;;;17.56;53.39;96051.31;5010459;28;20036;-71
2021/09/07 03:42:52;;;;;;;20.95;18.70;;;;;;;17.44;53.42;96038.56;5009003;28;20095;-71
2021/09/07 03:45:18;;;;;;;17.48;15.73;;;;;;;17.48;53.30;96044.06;4991644;28;20037;-71
2021/09/07 03:47:45;;;;;;;19.15;17.25;;;;;;;17.44;53.34;96032.38;5008354;28;20041;-71
2021/09/07 03:50:12;;;;;;;22.77;18.95;;;;;;;17.48;53.55;96044.88;5008127;28;20045;-71
2021/09/07 03:52:38;;;;;;;25.05;20.98;;;;;;;17.45;53.37;96042.03;5008994;28;20022;-72
2021/09/07 03:55:04;;;;;;;19.52;17.23;;;;;;;17.33;53.34;96037.34;5011131;28;20022;-71
2021/09/07 03:57:29;;;;;;;20.30;18.17;;;;;;;17.31;53.56;96032.31;5008467;28;20064;-73
2021/09/07 03:59:56;;;;;;;22.48;19.20;;;;;;;17.35;53.61;96045.88;5007061;28;20141;-71
2021/09/07 04:02:23;;;;;;;18.50;16.70;;;;;;;17.30;53.54;96035.31;4990676;28;20129;-71
2021/09/07 04:04:49;;;;;;;19.35;17.40;;;;;;;17.34;53.55;96044.31;5008422;28;20088;-72
2021/09/07 04:07:14;;;;;;;23.60;20.08;;;;;;;17.28;53.52;96034.84;5010724;28;20029;-72
2021/09/07 04:09:39;;;;;;;19.77;17.77;;;;;;;17.28;53.47;96043.72;5008078;28;20034;-72
2021/09/07 04:12:05;;;;;;;28.77;22.38;;;;;;;17.27;53.57;96052.09;5008519;28;20053;-71
2021/09/07 04:14:30;;;;;;;22.52;17.90;;;;;;;17.19;53.60;96034.09;4991201;28;20495;-71
2021/09/07 04:16:56;;;;;;;21.55;17.73;;;;;;;17.24;53.79;96042.78;4989440;28;20046;-71
2021/09/07 04:19:21;;;;;;;21.48;17.98;;;;;;;17.29;53.55;96050.66;5009868;28;20030;-71
2021/09/07 04:21:47;;;;;;;20.52;18.50;;;;;;;17.22;53.49;96033.47;4991196;28;20038;-73
2021/09/07 04:24:12;;;;;;;20.75;18.23;;;;;;;17.31;53.40;96047.66;5008527;28;20038;-72
2021/09/07 04:26:37;;;;;;;24.25;20.10;;;;;;;17.32;53.47;96050.00;5008581;28;20104;-72
2021/09/07 04:29:03;;;;;;;20.20;18.25;;;;;;;17.35;53.17;96043.19;5011598;28;20029;-72
2021/09/07 04:31:29;;;;;;;19.73;17.70;;;;;;;17.21;53.28;96032.69;5015106;28;20034;-79
2021/09/07 04:33:55;;;;;;;23.00;19.58;;;;;;;17.04;53.38;96009.34;4993688;28;20100;-78
2021/09/07 04:36:21;;;;;;;29.67;21.92;;;;;;;16.96;52.81;95996.75;4989475;28;20088;-77
2021/09/07 04:38:46;;;;;;;18.30;16.52;;;;;;;17.23;53.14;96045.78;5012467;28;20041;-77
2021/09/07 04:41:13;;;;;;;18.48;15.98;;;;;;;16.71;53.32;95965.38;5012877;28;20045;-77
2021/09/07 04:43:38;;;;;;;24.25;19.20;;;;;;;16.93;53.15;95993.91;4995153;28;20046;-77
2021/09/07 04:46:03;;;;;;;20.05;17.75;;;;;;;16.98;53.37;96005.25;4998068;28;20053;-76
2021/09/07 04:48:29;;;;;;;20.15;18.10;;;;;;;16.93;53.43;95991.22;4995010;28;20037;-78
2021/09/07 04:50:54;;;;;;;19.67;15.85;;;;;;;17.00;52.97;96000.38;4975023;28;20046;-78
2021/09/07 04:53:19;;;;;;;17.58;15.80;;;;;;;17.05;53.30;96002.88;5006199;28;20418;-73
2021/09/07 04:55:45;;;;;;;19.63;17.15;;;;;;;17.22;53.03;96034.25;5011499;28;20072;-71
2021/09/07 04:58:10;;;;;;;21.90;17.25;;;;;;;17.37;53.15;96043.66;5014147;28;20038;-66
2021/09/07 05:00:35;;;;;;;17.05;15.52;;;;;;;17.05;53.15;95994.03;5009654;28;20046;-70
2021/09/07 05:03:01;;;;;;;21.05;18.50;;;;;;;16.89;53.09;95972.28;5011202;28;20403;-70
2021/09/07 05:05:26;;;;;;;22.88;18.85;;;;;;;17.35;53.23;96056.63;5011186;28;20036;-67
2021/09/07 05:07:52;;;;;;;17.20;15.50;;;;;;;17.35;53.24;96038.63;5011759;28;20460;-73
2021/09/07 05:10:17;;;;;;;18.00;16.30;;;;;;;17.49;53.03;96053.72;5013383;28;20052;-74
2021/09/07 05:12:42;;;;;;;17.52;15.65;;;;;;;17.62;52.91;96066.16;5011815;28;20038;-73
2021/09/07 05:15:08;;;;;;;17.92;16.10;;;;;;;17.52;53.04;96045.00;4994319;28;20491;-73
2021/09/07 05:17:34;;;;;;;17.15;14.73;;;;;;;17.64;52.90;96045.06;5011128;28;20463;-73
2021/09/07 05:19:59;;;;;;;16.52;15.00;;;;;;;17.85;52.55;96067.44;4994826;28;20034;-78
2021/09/07 05:22:30;;;;;;;17.52;15.57;;;;;;;17.91;52.55;96062.66;4996915;28;20076;-78
2021/09/07 05:24:55;;;;;;;19.95;16.48;;;;;;;17.84;52.46;96035.47;5013151;28;20758;-80
2021/09/07 05:27:21;;;;;;;19.42;16.38;;;;;;;17.93;52.32;96036.19;5013030;28;20042;-78
2021/09/07 05:29:46;;;;;;;18.70;12.93;;;;;;;18.00;52.41;96035.66;4993738;28;20042;-76
2021/09/07 05:32:12;;;;;;;15.20;13.80;;;;;;;18.05;52.01;96028.19;4994467;28;20500;-78
2021/09/07 05:34:38;;;;;;;13.18;11.98;;;;;;;18.26;51.78;96054.28;4996415;28;20033;-77
2021/09/07 05:37:05;;;;;;;24.63;16.17;;;;;;;18.12;51.62;96041.91;4994859;28;20034;-77
2021/09/07 05:39:30;;;;;;;16.08;14.38;;;;;;;18.50;52.02;96067.84;4992796;28;20503;-77
2021/09/07 05:41:55;;;;;;;21.85;13.32;;;;;;;18.58;51.89;96074.28;4994211;28;20053;-74
2021/09/07 05:44:22;;;;;;;16.33;14.70;;;;;;;18.35;51.60;96020.78;4994311;28;20041;-69
2021/09/07 05:46:48;;;;;;;17.90;12.80;;;;;;;18.51;51.66;96020.94;5011114;28;20050;-72
2021/09/07 05:49:13;;;;;;;15.93;12.90;;;;;;;18.92;51.30;96059.69;5012416;28;20474;-68
2021/09/07 05:51:41;;;;;;;14.10;12.70;;;;;;;19.12;51.23;96069.59;5010334;28;20077;-74
2021/09/07 05:54:06;;;;;;;13.43;12.23;;;;;;;19.19;50.57;96047.44;5011357;28;20045;-72
2021/09/07 05:56:32;;;;;;;13.13;11.82;;;;;;;19.31;50.60;96044.00;5011363;28;20037;-69
2021/09/07 05:58:57;;;;;;;12.50;11.38;;;;;;;19.81;50.37;96080.63;5010683;28;20095;-74
2021/09/07 06:01:23;;;;;;;12.55;10.18;;;;;;;20.11;49.78;96087.31;4995204;28;20507;-70
2021/09/07 06:03:48;;;;;;;10.25;9.25;;;;;;;20.24;49.06;96063.75;5009576;28;20117;-67
2021/09/07 06:06:14;;;;;;;12.05;10.85;;;;;;;20.14;48.63;96029.13;5009975;28;20046;-67
2021/09/07 06:08:40;;;;;;;12.57;9.70;;;;;;;20.53;48.31;96035.63;5010216;28;20034;-73
2021/09/07 06:11:06;;;;;;;10.00;9.20;;;;;;;20.89;48.00;96056.28;5008716;28;20038;-69
2021/09/07 06:13:32;;;;;;;10.95;9.93;;;;;;;21.36;47.66;96077.16;5012301;28;20026;-72
2021/09/07 06:15:58;;;;;;;10.70;9.80;;;;;;;21.60;47.41;96094.31;5012006;28;20401;-80
2021/09/07 06:18:23;;;;;;;9.13;8.30;;;;;;;21.43;46.34;96063.00;5010245;28;20034;-73
2021/09/07 06:20:49;;;;;;;10.50;9.50;;;;;;;21.75;46.27;96072.66;5009259;28;20069;-71
2021/09/07 06:23:14;;;;;;;9.48;8.65;;;;;;;22.03;45.80;96087.97;5009939;28;20060;-71
2021/09/07 06:25:39;;;;;;;10.38;9.23;;;;;;;22.33;45.57;96088.22;5011085;28;20037;-77
2021/09/07 06:28:05;;;;;;;8.23;7.43;;;;;;;22.58;45.20;96094.16;4995956;28;20018;-75
2021/09/07 06:30:30;;;;;;;10.40;8.30;;;;;;;22.72;44.66;96091.69;4990132;28;20042;-73
2021/09/07 06:32:56;;;;;;;8.85;7.95;;;;;;;22.91;44.32;96090.91;5010085;28;20440;-75
2021/09/07 06:35:21;;;;;;;8.38;7.40;;;;;;;23.04;43.89;96083.41;5010143;28;20119;-73
2021/09/07 06:37:48;;;;;;;8.10;7.22;;;;;;;22.98;43.82;96046.84;5005508;28;20113;-69
2021/09/07 06:40:13;;;;;;;8.10;7.35;;;;;;;23.38;42.90;96094.44;5011474;28;20468;-78
2021/09/07 06:42:39;;;;;;;7.82;6.95;;;;;;;23.25;42.44;96063.97;4992258;28;20026;-72
2021/09/07 06:45:05;;;;;;;8.95;7.63;;;;;;;23.65;42.22;96100.69;4992352;28;20112;-71
2021/09/07 06:47:30;;;;;;;9.82;7.72;;;;;;;23.86;42.14;96104.53;5009492;28;20045;-72
2021/09/07 06:49:56;;;;;;;8.25;7.45;;;;;;;23.87;42.19;96067.28;5008192;28;20017;-74
2021/09/07 06:52:23;;;;;;;8.15;7.38;;;;;;;24.08;42.15;96064.84;5012114;28;20113;-73
2021/09/07 06:54:48;;;;;;;8.25;7.28;;;;;;;24.32;41.22;96069.03;5009498;28;20534;-71
2021/09/07 06:57:13;;;;;;;8.02;7.32;;;;;;;24.31;41.13;96045.72;5008411;28;20125;-70
2021/09/07 06:59:39;;;;;;;9.02;7.93;;;;;;;24.56;40.80;96029.69;5008849;28;20116;-71
2021/09/07 07:02:04;;;;;;;8.02;7.32;;;;;;;25.09;40.17;96085.84;5009506;28;20077;-71
2021/09/07 07:04:29;;;;;;;8.02;7.28;;;;;;;25.31;39.78;96086.81;5011396;28;20510;-77
2021/09/07 07:06:55;;;;;;;8.75;8.00;;;;;;;25.35;39.97;96084.91;4992408;28;20042;-74
2021/09/07 07:09:20;;;;;;;7.93;7.22;;;;;;;25.42;39.33;96082.25;5009081;28;20038;-69
2021/09/07 07:11:45;;;;;;;8.18;7.47;;;;;;;25.69;39.58;96085.56;5009061;28;20156;-69
2021/09/07 07:14:11;;;;;;;8.00;7.00;;;;;;;25.90;38.74;96077.56;5009613;28;20113;-71
2021/09/07 07:16:36;;;;;;;8.90;6.97;;;;;;;26.07;38.68;96078.03;4994064;28;20033;-71
2021/09/07 07:19:02;;;;;;;8.23;7.60;;;;;;;26.39;38.02;96086.38;5008535;28;20034;-73
2021/09/07 07:21:29;;;;;;;8.27;7.45;;;;;;;26.59;38.06;96084.16;5009161;28;20046;-74
2021/09/07 07:23:56;;;;;;;8.45;7.65;;;;;;;26.82;37.90;96098.28;5009139;28;20404;-73
2021/09/07 07:26:21;;;;;;;9.00;7.88;;;;;;;26.71;37.58;96089.25;5009283;28;20559;-72
2021/09/07 07:28:46;;;;;;;10.32;9.52;;;;;;;26.73;37.28;96083.41;4991070;28;20138;-73
2021/09/07 07:31:12;;;;;;;9.55;8.82;;;;;;;26.60;36.68;96081.03;5010989;28;20048;-72
2021/09/07 07:33:37;;;;;;;11.38;10.25;;;;;;;26.46;37.18;96100.06;5008420;28;20026;-73
2021/09/07 07:36:02;;;;;;;10.80;9.80;;;;;;;26.04;38.02;96101.38;5008395;28;20121;-72
2021/09/07 07:38:28;;;;;;;11.80;10.70;;;;;;;26.09;38.25;96094.78;5008934;28;20510;-72
2021/09/07 07:40:53;;;;;;;11.13;9.32;;;;;;;26.44;38.03;96089.53;5008734;28;20037;-72
2021/09/07 07:43:23;;;;;;;11.13;10.05;;;;;;;26.63;37.62;96087.69;5010755;28;20037;-73
2021/09/07 07:45:49;;;;;;;12.10;10.50;;;;;;;26.82;37.56;96092.81;5009004;28;20037;-72
2021/09/07 07:48:14;;;;;;;10.38;9.38;;;;;;;26.82;37.58;96092.81;5008535;28;20045;-72
2021/09/07 07:50:39;;;;;;;11.55;10.48;;;;;;;26.65;37.03;96104.44;4990878;28;20042;-73
2021/09/07 07:53:05;;;;;;;11.68;10.60;;;;;;;26.32;37.72;96095.31;4991433;28;20034;-72
2021/09/07 07:55:30;;;;;;;12.23;11.07;;;;;;;25.42;39.42;96096.63;5011172;28;20105;-73
2021/09/07 07:57:56;;;;;;;12.50;10.95;;;;;;;25.13;39.42;96092.09;5008767;28;20042;-72
2021/09/07 08:00:21;;;;;;;11.15;10.23;;;;;;;25.42;39.40;96095.84;5008405;28;20038;-71
2021/09/07 08:02:46;;;;;;;11.15;10.18;;;;;;;25.26;39.09;96084.44;5010274;28;20112;-72
2021/09/07 08:05:12;;;;;;;11.85;10.85;;;;;;;25.22;39.88;96097.25;5012268;28;20054;-72
2021/09/07 08:07:37;;;;;;;11.30;10.40;;;;;;;25.24;39.74;96095.72;5012762;28;20021;-71
2021/09/07 08:10:03;;;;;;;11.23;10.20;;;;;;;25.04;40.25;96091.59;4996896;28;20084;-72
2021/09/07 08:12:29;;;;;;;11.38;10.23;;;;;;;24.70;41.22;96094.34;5012432;28;20045;-72
2021/09/07 08:14:54;;;;;;;11.77;10.55;;;;;;;24.65;41.34;96081.09;5012497;28;20042;-73
2021/09/07 08:17:19;;;;;;;13.15;10.32;;;;;;;24.62;41.57;96079.13;5012526;28;20675;-72
2021/09/07 08:19:45;;;;;;;10.82;9.82;;;;;;;24.69;41.80;96087.34;5011398;28;20026;-72
2021/09/07 08:22:11;;;;;;;12.35;9.90;;;;;;;24.76;41.37;96073.03;5013905;28;20025;-72
2021/09/07 08:24:37;;;;;;;11.85;9.60;;;;;;;25.14;40.69;96101.84;5012240;28;20034;-72
2021/09/07 08:27:03;;;;;;;9.95;8.80;;;;;;;25.15;41.12;96096.03;4994686;28;20044;-72
2021/09/07 08:29:28;;;;;;;11.23;9.93;;;;;;;24.58;41.21;96089.97;5011742;28;20399;-73
2021/09/07 08:31:54;;;;;;;11.32;9.48;;;;;;;24.13;41.99;96077.34;5012236;28;20480;-72
2021/09/07 08:34:19;;;;;;;9.20;8.45;;;;;;;24.77;41.30;96096.38;4995831;28;20465;-73
2021/09/07 08:36:44;;;;;;;10.40;9.40;;;;;;;25.04;41.53;96102.50;5012214;28;20042;-72
2021/09/07 08:39:10;;;;;;;8.75;7.97;;;;;;;25.29;40.78;96091.88;4993935;28;20038;-72
2021/09/07 08:41:35;;;;;;;10.38;9.05;;;;;;;25.42;40.68;96087.69;5011860;28;20136;-72
2021/09/07 08:44:01;;;;;;;10.27;9.13;;;;;;;25.52;39.93;96092.44;5012220;28;20034;-72
2021/09/07 08:46:26;;;;;;;9.80;9.00;;;;;;;25.15;40.44;96081.63;5014001;28;20030;-72
2021/09/07 08:48:51;;;;;;;9.95;9.00;;;;;;;25.49;40.35;96095.13;4993573;28;20464;-73
2021/09/07 08:51:18;;;;;;;9.35;8.45;;;;;;;25.53;39.72;96101.38;5011434;28;20057;-73
2021/09/07 08:53:44;;;;;;;9.20;8.40;;;;;;;25.07;40.85;96080.00;5012028;28;20030;-72
2021/09/07 08:56:10;;;;;;;10.10;8.45;;;;;;;24.58;41.71;96064.69;5012022;28;20034;-72
2021/09/07 08:58:36;;;;;;;12.30;8.45;;;;;;;25.75;39.79;96096.94;5013482;28;20032;-72
2021/09/07 09:01:13;;;;;;;13.93;8.60;;;;;;;25.76;39.65;96093.03;5011425;28;20091;-72
2021/09/07 09:03:41;;;;;;;10.35;9.35;;;;;;;26.00;39.04;96084.25;4993428;28;20042;-72
2021/09/07 09:06:07;;;;;;;10.13;9.18;;;;;;;25.93;38.88;96103.28;5011400;28;20447;-72
2021/09/07 09:08:34;;;;;;;9.02;8.23;;;;;;;26.23;38.52;96092.16;5011110;28;20041;-72
2021/09/07 09:11:07;;;;;;;9.57;8.65;;;;;;;25.68;38.82;96108.50;5011126;28;20042;-72
2021/09/07 09:13:47;;;;;;;12.43;9.30;;;;;;;26.20;37.46;96092.91;4995642;28;20029;-72
2021/09/07 09:16:14;;;;;;;8.70;7.80;;;;;;;26.49;37.40;96106.72;4994185;28;20030;-72
2021/09/07 09:18:42;;;;;;;8.77;8.00;;;;;;;26.54;36.17;96115.31;5010790;28;20057;-71
2021/09/07 09:21:29;;;;;;;8.98;8.18;;;;;;;26.70;35.93;96106.78;5011365;28;20046;-71
2021/09/07 09:24:13;;;;;;;10.23;8.27;;;;;;;26.95;35.59;96106.88;5011380;28;20545;-72
2021/09/07 09:26:50;;;;;;;8.25;7.43;;;;;;;26.74;35.85;96104.88;5011007;28;20046;-71
2021/09/07 09:29:33;;;;;;;9.85;7.40;;;;;;;26.62;34.93;96075.97;5010710;28;20065;-72
2021/09/07 09:32:07;;;;;;;9.57;7.50;;;;;;;26.52;35.36;96116.88;5011092;28;20034;-71
2021/09/07 09:34:35;;;;;;;11.18;7.97;;;;;;;26.28;34.80;96110.09;4995104;28;20112;-71
2021/09/07 09:37:08;;;;;;;7.80;7.15;;;;;;;25.78;35.72;96102.38;5011067;28;20026;-71
2021/09/07 09:39:34;;;;;;;8.05;7.45;;;;;;;26.25;34.98;96083.56;5010310;28;20049;-71
2021/09/07 09:42:00;;;;;;;10.45;7.53;;;;;;;26.02;34.72;96111.13;4993546;28;20072;-72
2021/09/07 09:44:29;;;;;;;7.95;7.15;;;;;;;26.05;33.65;96104.88;5010955;28;20493;-71
2021/09/07 09:46:55;;;;;;;8.25;7.55;;;;;;;26.31;33.53;96107.41;5010649;28;20109;-72
2021/09/07 09:49:22;;;;;;;8.40;7.30;;;;;;;26.15;33.40;96112.34;4994272;28;20101;-71
2021/09/07 09:51:49;;;;;;;8.20;7.40;;;;;;;26.68;33.88;96114.59;5010338;28;20095;-72
2021/09/07 09:54:16;;;;;;;8.63;7.78;;;;;;;26.92;33.20;96107.63;4993100;28;20061;-71
2021/09/07 09:56:42;;;;;;;8.23;7.43;;;;;;;26.98;33.30;96110.78;4992970;28;20038;-71
2021/09/07 09:59:07;;;;;;;8.38;7.63;;;;;;;27.13;32.31;96115.13;5010551;28;20030;-72
2021/09/07 10:01:34;;;;;;;8.38;7.53;;;;;;;27.19;32.71;96097.19;5013318;28;20030;-71
2021/09/07 10:04:00;;;;;;;9.15;8.43;;;;;;;27.09;32.53;96095.22;5010703;28;20456;-72
2021/09/07 10:06:27;;;;;;;9.25;8.38;;;;;;;26.84;33.63;96101.38;5010482;28;20048;-72
2021/09/07 10:08:53;;;;;;;9.40;8.50;;;;;;;26.54;33.04;96098.94;5010396;28;20065;-72
2021/09/07 10:11:25;;;;;;;7.85;7.05;;;;;;;27.12;31.55;96088.97;5010727;28;20038;-72
2021/09/07 10:13:54;;;;;;;9.52;7.63;;;;;;;26.98;31.16;96078.03;5010218;28;20053;-72
2021/09/07 10:16:36;;;;;;;8.23;7.32;;;;;;;27.03;31.82;96088.56;5011985;28;20033;-72
2021/09/07 10:26:55;;;;;;;8.23;7.00;;;;;;;28.05;29.59;96080.75;5009544;28;20146;-71
2021/09/07 10:29:41;;;;;;;7.40;6.57;;;;;;;28.15;29.10;96071.75;4988698;28;20104;-72
2021/09/07 10:32:25;;;;;;;8.80;6.63;;;;;;;28.50;28.88;96062.66;5009836;28;20176;-72
2021/09/07 10:35:13;;;;;;;8.88;6.68;;;;;;;27.95;30.18;96068.69;5009219;28;20467;-72
2021/09/07 10:38:08;;;;;;;7.85;7.22;;;;;;;28.27;28.69;96067.81;5009611;28;20026;-73
2021/09/07 10:40:41;;;;;;;7.60;7.00;;;;;;;28.37;28.81;96067.81;4993704;28;20029;-72
2021/09/07 10:43:07;;;;;;;7.97;7.28;;;;;;;28.66;29.18;96056.72;5010123;28;20038;-72
2021/09/07 10:45:35;;;;;;;7.57;7.00;;;;;;;28.92;28.86;96044.44;4992065;28;20100;-72
2021/09/07 10:48:33;;;;;;;7.45;6.07;;;;;;;29.69;27.67;96061.53;5009464;28;20045;-72
2021/09/07 10:51:01;;;;;;;6.97;6.43;;;;;;;30.03;26.39;96050.59;5008839;28;20089;-72
2021/09/07 10:53:26;;;;;;;7.40;6.70;;;;;;;30.38;26.54;96040.41;4992127;28;20096;-73
2021/09/07 10:55:52;;;;;;;7.30;6.70;;;;;;;30.58;26.96;96048.03;5009494;28;20593;-73
2021/09/07 10:58:33;;;;;;;6.75;6.25;;;;;;;30.59;27.37;96047.59;5011413;28;20053;-72
2021/09/07 11:01:26;;;;;;;7.75;6.63;;;;;;;30.75;26.41;96055.25;5009203;28;20046;-71
2021/09/07 11:04:30;;;;;;;6.85;6.28;;;;;;;30.30;26.45;96049.91;4991497;28;20038;-73
2021/09/07 11:06:55;;;;;;;8.68;6.82;;;;;;;30.46;26.79;96050.13;5009109;28;20153;-72
2021/09/07 11:09:52;;;;;;;7.65;7.05;;;;;;;30.49;26.06;96045.78;4990664;28;20111;-72
2021/09/07 11:12:32;;;;;;;7.97;7.28;;;;;;;30.96;25.60;96046.72;5008504;28;20042;-72
2021/09/07 11:15:07;;;;;;;6.80;6.30;;;;;;;30.49;25.54;96032.81;4991770;28;20060;-72
2021/09/07 11:17:33;;;;;;;6.57;5.90;;;;;;;31.19;25.29;96042.47;5009012;28;20030;-71
2021/09/07 11:20:08;;;;;;;7.32;6.40;;;;;;;30.23;26.56;96047.28;5008268;28;20141;-72
2021/09/07 11:22:35;;;;;;;6.72;6.22;;;;;;;29.71;26.23;96045.44;4993240;28;20479;-71
2021/09/07 11:25:09;;;;;;;6.88;6.35;;;;;;;30.59;24.66;96052.31;5008971;28;20084;-72
2021/09/07 11:28:00;;;;;;;6.68;5.88;;;;;;;31.01;23.37;96046.25;5008644;28;20503;-72
2021/09/07 11:30:35;;;;;;;6.73;6.20;;;;;;;31.60;23.22;96055.19;5008172;28;20049;-72